« Back
NWS Peachtree City, Ga » Text Product » ATL Terminal Aerodrome Forecast


Printer-friendly Version
Current Version              Previous Versions:   1  2  3  4  5  6  7  8  9  

Terminal Aerodrome Forecast

172
FTUS42 KFFC 202329
TAFATL
TAF
KATL 202329Z 2100/2206 04006KT 6SM BR OVC012
      TEMPO 2100/2103 OVC009
     FM210300 05004KT 5SM BR OVC008
     FM210900 06004KT 2SM BR OVC005
     FM211400 07005KT 4SM BR BKN007 OVC015
     FM211800 08007KT P6SM OVC015
     FM220400 09005KT 6SM BR OVC008=



USA.gov is the U.S. government's official web portal to all federal, state and local government web resources and services.